Kezdőlap
METAR-TAF:

METAR-TAF

Repülőterek :

Lac Qui Parle County Airport

Madison, Minnesota, Amerikai Egyesült Államok

földrajzi szélesség: 44-59-10N, földrajzi hosszúság: 096-10-40W, magasság: 330 m

Jelenlegi meteorológiai megfigyelések

A jelentés 9 perccel ezelõtt készült, 10:55 UTC
Délkeleti szél 9 kt
Hőmérséklet -9°C
Páratartalom 79%
Légköri nyomás 1013 hPa
Látótávolság: 16.1 km
Borult 1400 lábon

METAR: KDXX 131055Z AUTO 13009KT 10SM OVC014 M09/M12 A2990 RMK AO2

Idő: 05:04 (11:04 UTC)


TAF: hiányzik

Meteorológiai megfigyelések és előrejelzések több, mint 4000 repülőtéren (METAR és TAF jelentéseket).

A térképen piros és sárga pontok jelzik az elérhető meteorológiai állomásokat.

Mozgassa az egeret a pont fölött, hogy megjelenjen az állomás neve.

Azután kattintson az időjárási megfigyelések és előrejelzések megtekintéséhez.

A térkép megváltoztatása: kattintson a fekete keresztel jelölt zöld gombra ráközelítéshez, a vonallal jelölt zöld gombra távolításhoz, vagy a zöld nyilakra a szomszédos térképek eléréséhez.


METAR-TAF: